Logo AVAMET
Benvolgut visitant, si us plau, ingressa Recuperar contrasenya

Inforatge Gilet

Dades diàries. Acumulats / Últims 30 dies disponibles

Data Temperatura (°C) Humitat rel. (%) Pressió rel. (hPa) Vent (km/h) Precipitació
Mínima Mitjana Màxima Amplitud
tèrmica
Mínima Mitjana Màxima Mínima Mitjana Màxima Predom. Mitjana Ràfega
màxima
Total
(mm)
Índex-n
Mínima Mitjana Màxima Mínima Mitjana Màxima n
0 a 1
P0 max
mm 5'
Dades mensuals acumulades fins l'últim dia disponible
11/2019 4,8 10,8 21,2 15,2 15,5 19,4 28,7 23,9 28 52 80 1.004 1.015 1.026   7,0 66,0 1,0
Dades anuals acumulades fins l'últim dia disponible
2019 1,2 13,5 24,3 18,3 9,1 23,4 41,9 40,7 13 64 96 996 1.022 1.041   5,1 69,3 287,4
Últims 30 dies disponibles
21-11-2019 6,7     12,7     16,9 10,2 53 65 76 1.013 1.014 1.015 WSW 3,1 24,1 0,0
20-11-2019 6,2     11,2     16,4 10,2 42 63 76 1.014 1.017 1.021 W 2,7 16,1 0,0
19-11-2019 7,6     11,0     16,7 9,1 34 52 69 1.019 1.021 1.023 NW 3,5 22,5 0,0
18-11-2019 10,1     12,9     16,1 6,0 37 51 69 1.012 1.016 1.022 NW 5,8 37,0 0,0
17-11-2019 4,8     12,1     16,8 12,0 39 51 64 1.013 1.017 1.019 WSW 8,4 46,7 0,0
16-11-2019 7,2     10,9     15,9 8,7 31 54 68 1.012 1.016 1.020 NW 3,4 30,6 0,0
15-11-2019 5,2     11,0     15,5 10,3 39 55 77 1.005 1.008 1.012 NW 3,4 35,4 0,0
14-11-2019 8,6     12,8     16,1 7,5 43 60 75 1.004 1.007 1.015 WSW 6,8 66,0 0,4
13-11-2019 11,2     15,3     19,5 8,3 39 62 80 1.010 1.013 1.017 WSW 6,0 33,8 0,6
12-11-2019 12,4     14,9     18,4 6,0 38 44 52 1.014 1.017 1.019 NW 10,0 41,8 0,0
11-11-2019 11,0     14,2     18,5 7,5 38 47 58 1.016 1.018 1.020 NW 8,7 49,9 0,0
10-11-2019 11,3     13,4     16,3 5,0 37 47 63 1.016 1.017 1.019 WNW 10,0 41,8 0,0
09-11-2019 12,8     15,7     19,3 6,5 33 42 55 1.018 1.021 1.024 WSW 10,6 51,5 0,0
08-11-2019 6,4     13,6     18,0 11,6 29 44 66 1.014 1.017 1.021 WSW 7,4 43,5 0,0
07-11-2019 10,0     16,0     22,4 12,4 28 50 69 1.012 1.014 1.018 WSW 6,3 41,8 0,0
06-11-2019 10,9     16,2     20,7 9,8 35 46 62 1.017 1.018 1.020 NW 6,0 37,0 0,0
05-11-2019 13,7     17,8     20,7 7,0 35 47 60 1.010 1.013 1.018 W 10,8 49,9 0,0
04-11-2019 17,6     20,6     24,0 6,4 42 52 65 1.011 1.013 1.015 W 10,1 61,2 0,0
03-11-2019 16,9     21,1     24,1 7,2 28 47 66 1.005 1.009 1.015 WSW 11,3 46,7 0,0
02-11-2019 21,2     23,1     26,4 5,2 43 57 68 1.009 1.014 1.018 WSW 10,1 37,0 0,0
01-11-2019 15,4     22,3     28,7 13,3 45 60 76 1.018 1.022 1.026 WSW 3,5 29,0 0,0
31-10-2019 16,1     21,0     26,9 10,8 40 64 83 1.024 1.025 1.027 O 3,5 27,4 0,0
30-10-2019 14,0     18,7     24,4 10,4 57 75 90 1.025 1.026 1.027 W 2,6 17,7 0,0
29-10-2019 12,8     17,3     22,9 10,1 69 83 91 1.021 1.023 1.025 E 2,1 16,1 0,2
28-10-2019 13,0     16,4     20,8 7,8 72 83 90 1.022 1.024 1.026 W 1,3 9,7 0,0
27-10-2019 12,7     16,9     22,1 9,4 65 82 91 1.026 1.027 1.028 W 2,7 22,5 0,0
26-10-2019 11,3     16,4     22,0 10,7 54 75 89 1.026 1.027 1.028 W 3,2 20,9 0,0
25-10-2019 13,8     18,5     23,3 9,5 42 60 77 1.026 1.027 1.029 NW 3,2 19,3 0,0
24-10-2019 10,4     16,8     21,4 11,0 42 56 72 1.016 1.021 1.027 NW 5,8 35,4 0,0
23-10-2019 10,5     15,0     19,1 8,6 46 63 87 1.010 1.012 1.016 WSW 7,4 35,4 0,0
Últims 13 mesos disponibles
10/2019 10,0 14,9 19,8 19,4 15,2 24,6 29,7 19,7 47 69 83 1.012 1.022 1.027 W 3,9 46,7 27,4
09/2019 14,4 18,9 22,3 22,8 20,7 27,2 32,2 17,8 45 72 82 1.016 1.024 1.031 SSO 4,5 48,3 117,2
08/2019 17,0 20,8 24,3 25,7 25,0 30,4 41,9 24,9 42 69 79 1.016 1.022 1.026 SSO 4,7 61,1 12,6
07/2019 19,4 20,9 23,4 26,1 27,3 31,0 36,6 17,2 47 63 78 1.011 1.020 1.027 S 4,9 45,0 12,2
06/2019 10,5 16,5 20,9 21,9 21,3 26,8 37,7 27,2 39 62 78 1.014 1.021 1.028 S 5,3 61,1 0,0
05/2019 8,3 13,3 17,9 17,9 18,4 22,6 32,7 24,4 45 66 84 1.011 1.021 1.030 S 4,7 51,9 22,0
04/2019 7,2 10,6 14,1 14,9 15,3 19,7 29,8 22,6 42 64 93 1.005 1.018 1.031 SSO 6,8 66,7 61,6
03/2019 4,6 8,0 12,6 13,7 12,1 19,6 28,2 23,6 40 59 86 1.016 1.028 1.035 SSO 4,6 56,3 33,4
02/2019 1,6 5,5 10,8 10,8 10,7 17,1 26,2 24,6 34 64 86 998 1.029 1.039 SO 5,2 68,5 0,0
01/2019 1,2 5,3 11,6 10,4 9,1 16,1 20,9 19,7 37 60 85 1.005 1.024 1.035 SO 5,0 69,3 0,0
12/2018 3,6 7,8 12,3 12,5 14,4 18,2 24,8 21,2 41 70 88 1.013 1.030 1.035 OSO 3,9 66,7 8,0
11/2018 5,2 10,7 15,0 14,0 11,9 17,9 24,0 18,8 46 73 93 1.007 1.020 1.029 OSO 4,7 64,8 103,0
10/2018 8,1 13,9 17,1 17,9 13,8 22,5 28,2 20,1 41 72 91 1.004 1.020 1.031 SO 4,3 46,7 157,4
Tots els anys disponibles
Temperatura (°C)
Humitat relativa (%)
Velocitat del vent i ràfega màxima (km/h)
Direcció del vent (°)
Pressió (hPa)
Precipitació (mm)
Nota sobre les dades: s'avisa a l'usuari de la provisionalitat i no oficialitat d'aquestes dades
Logo AVAMET blanc
Web allotjada a Sollutia
Llicència de Creative CommonsLa web d'AVAMET i els seus continguts estan subjectes a una llicència de
Reconeixement - No Comercial - Compartir igual
Últimes estacions: Faura (Inforatge), Benifairó de les Valls (Inforatge), Xàbia - Les Valls (Soci), Xàbia - Alt de la Granadella (Soci), Villena - Sierra de Salinas (Soci), Sueca - Centre (Inforatge) - - -